Time;durP1;ratioP1;P1;durP2;ratioP2;P2;SDS_P1;SDS_P2;PMS_P1;PMS_P2;Temp;Humidity;BMP_temperature;BMP_pressure;BME280_temperature;BME280_humidity;BME280_pressure;Samples;Min_cycle;Max_cycle;Signal;HPM_P1;HPM_P2
2023/05/01 00:00:21;;;;;;;0.00;0.00;;;;;;;6.69;72.70;100789.31;5013899;28;20180;-77
2023/05/01 00:02:46;;;;;;;0.00;0.00;;;;;;;6.72;72.62;100772.47;5015205;28;20185;-77
2023/05/01 00:05:11;;;;;;;0.00;0.00;;;;;;;6.67;73.30;100788.78;5014403;28;20193;-77
2023/05/01 00:07:36;;;;;;;0.00;0.00;;;;;;;6.83;73.39;100777.59;5015316;28;20212;-76
2023/05/01 00:10:02;;;;;;;0.00;0.00;;;;;;;6.21;74.44;100767.16;5014926;28;20176;-76
2023/05/01 00:12:27;;;;;;;1.27;1.27;;;;;;;6.33;74.98;100778.53;5029741;28;20716;-77
2023/05/01 00:14:53;;;;;;;0.00;0.00;;;;;;;6.56;75.04;100788.81;4998853;28;20240;-76
2023/05/01 00:17:18;;;;;;;0.00;0.00;;;;;;;6.64;74.90;100778.47;5012704;28;20211;-76
2023/05/01 00:19:43;;;;;;;0.00;0.00;;;;;;;6.43;75.78;100775.00;5014181;28;20168;-77
2023/05/01 00:22:09;;;;;;;0.00;0.00;;;;;;;6.53;75.44;100773.09;5012775;28;20200;-77
2023/05/01 00:24:37;;;;;;;0.00;0.00;;;;;;;6.37;75.49;100763.38;5013680;28;20196;-77
2023/05/01 00:27:02;;;;;;;0.00;0.00;;;;;;;6.33;76.23;100767.69;5013036;28;20187;-77
2023/05/01 00:29:28;;;;;;;0.00;0.00;;;;;;;6.36;76.61;100761.72;5014617;28;20208;-77
2023/05/01 00:31:54;;;;;;;0.00;0.00;;;;;;;6.19;76.95;100761.22;5014056;28;20231;-76
2023/05/01 00:34:19;;;;;;;0.00;0.00;;;;;;;6.20;77.47;100754.69;5012621;28;20214;-76
2023/05/01 00:36:44;;;;;;;0.00;0.00;;;;;;;5.55;78.72;100742.81;5013976;28;20180;-77
2023/05/01 00:39:11;;;;;;;0.00;0.00;;;;;;;5.50;79.85;100750.94;5013410;28;20601;-77
2023/05/01 00:41:36;;;;;;;0.07;0.07;;;;;;;5.42;80.41;100746.84;5014831;28;20196;-76
2023/05/01 00:44:02;;;;;;;0.10;0.10;;;;;;;5.43;80.82;100748.47;5013140;28;20651;-77
2023/05/01 00:46:29;;;;;;;0.00;0.00;;;;;;;5.41;80.80;100750.66;5012815;28;20215;-77
2023/05/01 00:48:55;;;;;;;0.00;0.00;;;;;;;5.62;80.70;100743.34;5015271;28;20212;-77
2023/05/01 00:51:21;;;;;;;0.00;0.00;;;;;;;5.69;80.87;100738.47;5030551;28;20215;-77
2023/05/01 00:53:47;;;;;;;0.00;0.00;;;;;;;5.73;80.16;100746.88;5015365;28;20655;-76
2023/05/01 00:56:13;;;;;;;0.00;0.00;;;;;;;5.64;79.96;100742.00;5013297;28;20689;-76
2023/05/01 00:58:39;;;;;;;0.30;0.30;;;;;;;5.55;80.11;100730.06;5014219;28;20188;-76
2023/05/01 01:01:04;;;;;;;7.80;2.70;;;;;;;5.58;80.23;100736.84;5013345;28;20569;-76
2023/05/01 01:03:30;;;;;;;0.00;0.00;;;;;;;5.42;80.89;100738.72;5014022;28;20177;-76
2023/05/01 01:06:08;;;;;;;0.00;0.00;;;;;;;5.38;81.64;100735.75;5013870;28;20202;-76
2023/05/01 01:08:47;;;;;;;0.33;0.20;;;;;;;5.24;81.87;100739.25;5013454;28;20208;-76
2023/05/01 01:11:13;;;;;;;0.60;0.60;;;;;;;4.93;82.94;100735.66;5006850;28;20204;-76
2023/05/01 01:13:48;;;;;;;0.10;0.10;;;;;;;4.85;84.19;100744.28;5019551;28;20176;-76
2023/05/01 01:16:36;;;;;;;0.07;0.07;;;;;;;4.71;85.31;100736.66;5013876;28;20210;-76
2023/05/01 01:19:01;;;;;;;0.90;0.90;;;;;;;4.54;86.42;100736.06;5014222;28;20263;-76
2023/05/01 01:21:32;;;;;;;0.00;0.00;;;;;;;4.55;87.06;100734.16;5013935;28;20212;-76
2023/05/01 01:24:39;;;;;;;0.00;0.00;;;;;;;4.72;88.15;100722.06;5013899;28;20176;-76
2023/05/01 01:27:18;;;;;;;0.00;0.00;;;;;;;4.66;87.70;100716.91;4993939;28;20188;-76
2023/05/01 01:29:59;;;;;;;0.00;0.00;;;;;;;4.75;88.07;100716.09;5013687;28;20698;-76
2023/05/01 01:32:36;;;;;;;0.00;0.00;;;;;;;4.67;88.82;100705.00;5013000;28;20200;-76
2023/05/01 01:35:05;;;;;;;0.00;0.00;;;;;;;4.90;88.81;100700.97;5011307;28;20184;-76
2023/05/01 01:37:59;;;;;;;0.00;0.00;;;;;;;4.54;88.94;100686.56;5011460;28;20180;-76
2023/05/01 01:40:31;;;;;;;0.00;0.00;;;;;;;4.35;89.50;100691.63;5012497;28;20223;-76
2023/05/01 01:43:05;;;;;;;0.00;0.00;;;;;;;4.35;90.00;100695.13;5017718;28;20172;-77
2023/05/01 01:45:34;;;;;;;0.10;0.10;;;;;;;4.56;90.07;100690.59;5013365;28;20179;-76
2023/05/01 01:48:01;;;;;;;0.00;0.00;;;;;;;4.82;87.91;100677.16;5011764;28;20177;-76
2023/05/01 01:50:27;;;;;;;0.00;0.00;;;;;;;4.80;86.18;100673.91;5014857;28;20651;-76
2023/05/01 01:52:57;;;;;;;0.00;0.00;;;;;;;4.73;85.59;100666.03;5014256;28;20263;-76
2023/05/01 01:55:29;;;;;;;0.00;0.00;;;;;;;4.65;85.95;100661.97;5011495;28;20231;-76
2023/05/01 01:57:56;;;;;;;0.00;0.00;;;;;;;4.64;85.89;100660.34;5015011;28;20200;-76
2023/05/01 02:00:22;;;;;;;0.00;0.00;;;;;;;4.80;85.96;100658.50;5013917;28;20212;-76
2023/05/01 02:02:49;;;;;;;0.00;0.00;;;;;;;5.03;86.05;100657.16;5012163;28;20181;-76
2023/05/01 02:05:18;;;;;;;0.00;0.00;;;;;;;5.06;86.08;100656.59;5028213;28;20702;-76
2023/05/01 02:07:47;;;;;;;0.00;0.00;;;;;;;5.00;85.60;100655.00;5014078;28;20253;-77
2023/05/01 02:10:14;;;;;;;0.00;0.00;;;;;;;4.88;85.50;100649.00;5013373;28;20189;-77
2023/05/01 02:12:43;;;;;;;0.00;0.00;;;;;;;4.92;86.16;100650.94;5012443;28;20196;-77
2023/05/01 02:15:09;;;;;;;0.83;0.83;;;;;;;5.00;85.39;100647.69;5003976;28;20247;-76
2023/05/01 02:17:36;;;;;;;0.00;0.00;;;;;;;5.25;85.42;100644.19;5012672;28;20191;-76
2023/05/01 02:20:04;;;;;;;0.00;0.00;;;;;;;5.33;84.64;100630.06;5012902;28;20264;-76
2023/05/01 02:22:30;;;;;;;0.00;0.00;;;;;;;5.38;84.37;100627.38;5009971;28;20211;-76
2023/05/01 02:24:58;;;;;;;0.00;0.00;;;;;;;5.38;84.20;100619.25;5011309;28;20192;-76
2023/05/01 02:27:31;;;;;;;0.20;0.20;;;;;;;5.06;84.74;100621.41;5012218;28;20193;-76
2023/05/01 02:29:56;;;;;;;0.20;0.20;;;;;;;4.80;85.70;100614.38;5012611;28;20244;-76
2023/05/01 02:32:22;;;;;;;0.00;0.00;;;;;;;4.86;86.03;100621.41;5012295;28;20290;-76
2023/05/01 02:34:48;;;;;;;0.00;0.00;;;;;;;4.74;86.51;100617.03;5012338;28;20184;-76
2023/05/01 02:37:14;;;;;;;0.27;0.27;;;;;;;4.63;86.76;100620.84;5012396;28;20234;-76
2023/05/01 02:39:39;;;;;;;0.00;0.00;;;;;;;4.54;87.61;100613.50;5011217;28;20176;-76
2023/05/01 02:42:08;;;;;;;0.07;0.07;;;;;;;4.46;87.78;100604.81;5012425;28;20548;-76
2023/05/01 02:44:45;;;;;;;0.00;0.00;;;;;;;4.67;87.18;100610.28;5011016;28;20678;-76
2023/05/01 02:47:16;;;;;;;0.00;0.00;;;;;;;4.69;86.67;100602.72;5026036;28;20187;-76
2023/05/01 02:49:43;;;;;;;0.00;0.00;;;;;;;4.61;86.58;100600.50;5009602;28;20204;-76
2023/05/01 02:52:11;;;;;;;0.00;0.00;;;;;;;4.72;86.71;100604.88;5010702;28;20215;-76
2023/05/01 02:54:37;;;;;;;0.00;0.00;;;;;;;4.85;86.73;100598.13;5010182;28;20216;-76
2023/05/01 02:57:04;;;;;;;0.00;0.00;;;;;;;4.90;86.38;100592.69;5026201;28;20196;-76
2023/05/01 02:59:30;;;;;;;0.00;0.00;;;;;;;4.88;85.72;100579.44;5026359;28;20267;-76
2023/05/01 03:01:55;;;;;;;0.73;0.73;;;;;;;4.80;85.87;100581.88;5026793;28;20290;-76
2023/05/01 03:04:20;;;;;;;0.00;0.00;;;;;;;4.75;85.77;100585.38;5011070;28;20563;-76
2023/05/01 03:06:46;;;;;;;0.30;0.30;;;;;;;4.64;86.56;100578.34;5013623;28;20602;-76
2023/05/01 03:09:11;;;;;;;0.00;0.00;;;;;;;4.62;87.24;100575.91;5014392;28;20219;-76
2023/05/01 03:11:36;;;;;;;0.00;0.00;;;;;;;4.55;87.23;100579.94;5013109;28;20668;-76
2023/05/01 03:14:02;;;;;;;0.00;0.00;;;;;;;4.44;87.78;100571.81;5012484;28;20279;-76
2023/05/01 03:16:27;;;;;;;0.00;0.00;;;;;;;4.51;88.33;100578.88;5014524;28;20180;-76
2023/05/01 03:18:52;;;;;;;0.30;0.30;;;;;;;4.57;88.80;100575.09;5014261;28;20540;-76
2023/05/01 03:21:18;;;;;;;0.00;0.00;;;;;;;4.51;88.75;100574.28;5012745;28;20208;-76
2023/05/01 03:23:43;;;;;;;0.20;0.20;;;;;;;4.47;88.58;100570.47;5014194;28;20265;-76
2023/05/01 03:26:08;;;;;;;0.00;0.00;;;;;;;4.42;89.04;100565.84;5013041;28;20548;-76
2023/05/01 03:28:34;;;;;;;0.00;0.00;;;;;;;4.26;89.95;100566.09;5014362;28;20212;-76
2023/05/01 03:30:59;;;;;;;0.27;0.27;;;;;;;4.40;90.58;100564.50;5015064;28;20247;-76
2023/05/01 03:33:25;;;;;;;0.00;0.00;;;;;;;4.32;90.75;100562.31;5014448;28;20192;-76
2023/05/01 03:36:10;;;;;;;0.00;0.00;;;;;;;4.45;91.28;100564.50;5014642;28;20180;-76
2023/05/01 03:38:35;;;;;;;0.00;0.00;;;;;;;4.55;91.10;100558.31;5014902;28;20230;-76
2023/05/01 03:41:00;;;;;;;0.40;0.37;;;;;;;4.04;90.89;100544.66;5013704;28;20208;-76
2023/05/01 03:43:26;;;;;;;0.00;0.00;;;;;;;3.87;92.34;100547.56;5013653;28;20191;-76
2023/05/01 03:45:51;;;;;;;0.00;0.00;;;;;;;3.68;93.37;100538.31;5013437;28;20191;-76
2023/05/01 03:48:18;;;;;;;0.00;0.00;;;;;;;3.39;93.82;100535.19;5012338;28;20579;-76
2023/05/01 03:50:43;;;;;;;0.20;0.20;;;;;;;3.19;94.96;100533.19;5012469;28;20296;-76
2023/05/01 03:53:08;;;;;;;0.00;0.00;;;;;;;3.19;96.40;100542.09;5013642;28;20278;-76
2023/05/01 03:55:34;;;;;;;0.40;0.40;;;;;;;3.21;97.22;100536.44;5012976;28;20196;-76
2023/05/01 03:57:59;;;;;;;0.00;0.00;;;;;;;3.25;97.73;100532.13;5013429;28;20208;-76
2023/05/01 04:00:25;;;;;;;0.00;0.00;;;;;;;3.20;98.26;100526.72;5013651;28;20545;-76
2023/05/01 04:02:55;;;;;;;0.00;0.00;;;;;;;3.28;98.89;100527.03;5028769;28;20184;-76
2023/05/01 04:05:21;;;;;;;0.47;0.47;;;;;;;3.45;98.66;100529.53;5013688;28;20192;-76
2023/05/01 04:07:46;;;;;;;0.00;0.00;;;;;;;3.59;97.86;100525.28;5014121;28;20198;-76
2023/05/01 04:10:11;;;;;;;0.00;0.00;;;;;;;3.54;98.07;100529.88;5013790;28;20181;-76
2023/05/01 04:12:37;;;;;;;0.00;0.00;;;;;;;3.36;97.85;100517.63;5014068;28;20296;-76
2023/05/01 04:15:03;;;;;;;0.00;0.00;;;;;;;3.46;97.85;100517.66;5013449;28;20554;-76
2023/05/01 04:17:28;;;;;;;0.47;0.47;;;;;;;3.28;97.71;100518.91;5012296;28;20189;-76
2023/05/01 04:19:54;;;;;;;0.00;0.00;;;;;;;3.26;98.82;100514.88;5013387;28;20181;-76
2023/05/01 04:22:20;;;;;;;0.00;0.00;;;;;;;3.48;98.65;100512.03;5011526;28;20231;-76
2023/05/01 04:24:45;;;;;;;0.00;0.00;;;;;;;3.54;98.19;100519.06;5021140;28;20204;-76
2023/05/01 04:27:11;;;;;;;0.00;0.00;;;;;;;3.27;97.81;100517.31;5024357;28;20188;-76
2023/05/01 04:29:36;;;;;;;0.00;0.00;;;;;;;3.35;97.85;100517.91;5018250;28;20298;-76
2023/05/01 04:32:02;;;;;;;0.00;0.00;;;;;;;3.48;98.40;100503.91;5012778;28;20303;-76
2023/05/01 04:34:28;;;;;;;0.00;0.00;;;;;;;3.72;98.01;100512.38;5027943;28;20180;-76
2023/05/01 04:36:56;;;;;;;0.10;0.10;;;;;;;3.94;97.84;100509.50;5028277;28;20650;-76
2023/05/01 04:39:21;;;;;;;0.00;0.00;;;;;;;4.03;96.83;100508.69;5013294;28;20200;-76
2023/05/01 04:41:47;;;;;;;0.00;0.00;;;;;;;4.02;96.04;100504.38;5013544;28;20212;-76
2023/05/01 04:44:12;;;;;;;0.00;0.00;;;;;;;4.17;95.53;100504.41;5013156;28;20380;-76
2023/05/01 04:46:37;;;;;;;0.00;0.00;;;;;;;4.19;95.30;100514.94;5013532;28;20188;-76
2023/05/01 04:49:02;;;;;;;0.00;0.00;;;;;;;4.23;95.00;100507.16;5013094;28;20236;-76
2023/05/01 04:51:28;;;;;;;0.00;0.00;;;;;;;4.39;95.22;100500.66;5012500;28;20204;-76
2023/05/01 04:53:54;;;;;;;0.00;0.00;;;;;;;4.35;95.08;100505.81;5012150;28;20203;-77
2023/05/01 04:56:20;;;;;;;0.00;0.00;;;;;;;4.13;95.14;100497.91;5012641;28;20216;-76
2023/05/01 04:58:45;;;;;;;0.00;0.00;;;;;;;4.06;94.79;100508.19;5010677;28;20216;-76
2023/05/01 05:01:10;;;;;;;0.00;0.00;;;;;;;3.91;95.34;100499.22;5011033;28;20212;-77
2023/05/01 05:03:36;;;;;;;0.00;0.00;;;;;;;3.83;95.96;100501.34;5012276;28;20259;-76
2023/05/01 05:06:02;;;;;;;0.00;0.00;;;;;;;3.82;96.68;100504.31;5011881;28;20199;-76
2023/05/01 05:08:28;;;;;;;0.00;0.00;;;;;;;3.83;96.93;100506.75;5010875;28;20204;-77
2023/05/01 05:10:58;;;;;;;0.00;0.00;;;;;;;3.97;97.45;100504.38;5012093;28;20295;-77
2023/05/01 05:13:24;;;;;;;0.00;0.00;;;;;;;4.06;97.37;100510.09;5010719;28;20283;-76
2023/05/01 05:15:49;;;;;;;0.60;0.60;;;;;;;4.04;97.29;100502.22;5011724;28;20263;-77
2023/05/01 05:18:14;;;;;;;0.00;0.00;;;;;;;4.08;97.68;100507.91;5012069;28;20191;-76
2023/05/01 05:20:40;;;;;;;0.00;0.00;;;;;;;4.06;97.10;100510.09;4997299;28;20224;-76
2023/05/01 05:23:05;;;;;;;0.00;0.00;;;;;;;4.14;97.22;100504.94;5007892;28;20631;-77
2023/05/01 05:25:30;;;;;;;0.00;0.00;;;;;;;4.31;96.79;100512.00;5011448;28;20180;-76
2023/05/01 05:27:56;;;;;;;0.30;0.30;;;;;;;4.36;95.50;100503.91;5013387;28;20184;-76
2023/05/01 05:30:21;;;;;;;0.00;0.00;;;;;;;4.47;95.22;100498.22;5011228;28;20181;-77
2023/05/01 05:32:47;;;;;;;0.00;0.00;;;;;;;4.64;94.40;100506.09;5012717;28;20180;-77
2023/05/01 05:35:12;;;;;;;0.00;0.00;;;;;;;4.74;94.64;100507.97;5012265;28;20184;-77
2023/05/01 05:37:37;;;;;;;0.93;0.93;;;;;;;4.90;94.22;100500.66;5012625;28;20199;-76
2023/05/01 05:40:03;;;;;;;0.43;0.43;;;;;;;4.95;94.54;100506.91;5012479;28;20187;-77
2023/05/01 05:42:28;;;;;;;0.00;0.00;;;;;;;5.08;95.18;100505.53;4994201;28;20197;-77
2023/05/01 05:44:54;;;;;;;0.00;0.00;;;;;;;5.28;94.97;100505.50;4990097;28;20281;-76
2023/05/01 05:47:19;;;;;;;0.00;0.00;;;;;;;5.47;94.81;100504.88;4989592;28;20181;-77
2023/05/01 05:49:44;;;;;;;0.77;0.77;;;;;;;5.67;93.82;100502.13;4997942;28;20271;-77
2023/05/01 05:52:10;;;;;;;0.00;0.00;;;;;;;5.81;92.62;100497.72;5010078;28;20287;-77
2023/05/01 05:54:35;;;;;;;0.00;0.00;;;;;;;6.12;91.47;100497.59;5009792;28;20657;-77
2023/05/01 05:57:02;;;;;;;0.00;0.00;;;;;;;6.26;88.87;100490.44;5011298;28;20238;-77
2023/05/01 05:59:27;;;;;;;0.00;0.00;;;;;;;6.39;87.76;100486.28;5011425;28;20200;-77
2023/05/01 06:01:53;;;;;;;0.93;0.47;;;;;;;6.46;87.00;100482.16;5011133;28;20240;-77
2023/05/01 06:04:18;;;;;;;0.00;0.00;;;;;;;6.53;87.28;100479.94;4999281;28;20624;-77
2023/05/01 06:06:43;;;;;;;0.00;0.00;;;;;;;6.57;86.90;100481.00;4991142;28;20264;-77
2023/05/01 06:09:09;;;;;;;0.00;0.00;;;;;;;6.61;86.55;100483.13;4990999;28;20201;-77
2023/05/01 06:11:34;;;;;;;0.00;0.00;;;;;;;6.50;85.93;100475.06;4990985;28;20251;-76
2023/05/01 06:14:02;;;;;;;0.00;0.00;;;;;;;6.69;85.90;100475.19;4990313;28;20289;-77
2023/05/01 06:16:27;;;;;;;0.00;0.00;;;;;;;6.68;85.11;100475.50;4991124;28;20205;-77
2023/05/01 06:18:53;;;;;;;0.00;0.00;;;;;;;6.78;85.13;100484.34;4989707;28;20287;-77
2023/05/01 06:21:18;;;;;;;0.00;0.00;;;;;;;6.89;84.10;100479.63;4989439;28;20297;-77
2023/05/01 06:23:43;;;;;;;0.00;0.00;;;;;;;6.83;83.31;100472.63;4989496;28;20177;-77
2023/05/01 06:26:09;;;;;;;0.00;0.00;;;;;;;7.08;83.57;100479.72;4990324;28;20647;-77
2023/05/01 06:28:34;;;;;;;0.00;0.00;;;;;;;7.25;83.34;100468.41;4990723;28;20201;-77
2023/05/01 06:30:59;;;;;;;0.43;0.43;;;;;;;7.43;83.22;100481.25;4991224;28;20745;-76
2023/05/01 06:33:25;;;;;;;0.00;0.00;;;;;;;7.60;81.85;100469.91;5011043;28;20227;-76
2023/05/01 06:35:50;;;;;;;0.00;0.00;;;;;;;7.70;81.16;100459.72;5009181;28;20238;-77
2023/05/01 06:38:15;;;;;;;0.00;0.00;;;;;;;7.85;80.00;100457.91;5010841;28;20187;-77
2023/05/01 06:40:41;;;;;;;0.00;0.00;;;;;;;8.06;79.47;100453.78;5007339;28;20298;-76
2023/05/01 06:43:07;;;;;;;0.20;0.20;;;;;;;8.33;78.38;100450.38;5015055;28;20211;-77
2023/05/01 06:45:32;;;;;;;0.00;0.00;;;;;;;8.60;76.94;100445.06;5014415;28;20227;-77
2023/05/01 06:47:58;;;;;;;0.63;0.63;;;;;;;8.70;74.53;100433.19;5007682;28;20188;-80
2023/05/01 06:50:23;;;;;;;0.27;0.27;;;;;;;8.72;73.86;100425.53;5007192;28;20194;-76
2023/05/01 06:52:48;;;;;;;0.00;0.00;;;;;;;8.78;74.97;100429.78;5029155;28;20192;-76
2023/05/01 06:55:14;;;;;;;0.00;0.00;;;;;;;8.77;74.00;100425.44;5029104;28;20275;-78
2023/05/01 06:57:40;;;;;;;0.00;0.00;;;;;;;8.72;73.87;100430.19;5013484;28;20180;-78
2023/05/01 07:00:07;;;;;;;0.00;0.00;;;;;;;8.80;74.42;100433.00;5014674;28;20176;-77
2023/05/01 07:02:32;;;;;;;1.30;0.77;;;;;;;8.80;74.89;100433.00;5013634;28;20284;-78
2023/05/01 07:04:58;;;;;;;0.23;0.23;;;;;;;8.87;75.19;100427.19;5014843;28;20220;-77
2023/05/01 07:07:24;;;;;;;1.40;0.60;;;;;;;9.10;75.12;100430.81;5016142;28;20261;-77
2023/05/01 07:09:49;;;;;;;0.30;0.30;;;;;;;9.14;73.87;100421.75;5015883;28;20678;-77
2023/05/01 07:12:14;;;;;;;0.73;0.73;;;;;;;9.35;73.58;100422.16;5014269;28;20208;-77
2023/05/01 07:14:40;;;;;;;0.00;0.00;;;;;;;9.50;72.42;100413.66;5014119;28;20625;-76
2023/05/01 07:17:07;;;;;;;0.97;0.97;;;;;;;9.59;71.94;100411.03;5014197;28;20554;-77
2023/05/01 07:19:33;;;;;;;0.33;0.30;;;;;;;9.72;70.73;100406.66;5029297;28;20559;-77
2023/05/01 07:21:58;;;;;;;0.53;0.53;;;;;;;9.86;72.11;100420.28;5014568;28;20204;-76
2023/05/01 07:24:24;;;;;;;0.73;0.73;;;;;;;9.93;70.51;100407.81;5013878;28;20599;-76
2023/05/01 07:26:50;;;;;;;0.43;0.43;;;;;;;9.95;71.83;100410.22;5014499;28;20191;-76
2023/05/01 07:29:16;;;;;;;0.17;0.17;;;;;;;10.01;72.17;100419.94;5012998;28;20315;-76
2023/05/01 07:31:41;;;;;;;9.03;1.90;;;;;;;10.12;72.18;100419.38;4993818;28;20229;-76
2023/05/01 07:34:06;;;;;;;1.23;1.13;;;;;;;10.29;71.83;100396.09;4992042;28;20235;-77
2023/05/01 07:36:32;;;;;;;1.00;0.93;;;;;;;10.41;68.80;100390.84;5006867;28;20239;-76
2023/05/01 07:38:58;;;;;;;0.00;0.00;;;;;;;10.56;68.64;100395.13;5012463;28;20563;-77
2023/05/01 07:41:24;;;;;;;0.00;0.00;;;;;;;10.79;68.86;100395.91;5013613;28;20239;-77
2023/05/01 07:43:49;;;;;;;0.17;0.10;;;;;;;10.93;67.85;100385.69;5013939;28;20188;-77
2023/05/01 07:46:15;;;;;;;0.37;0.37;;;;;;;11.06;67.67;100387.50;5013796;28;20230;-76
2023/05/01 07:48:41;;;;;;;1.90;1.83;;;;;;;11.12;65.67;100374.50;5029450;28;20243;-76
2023/05/01 07:51:06;;;;;;;0.23;0.23;;;;;;;11.24;65.20;100372.78;5013803;28;20694;-76
2023/05/01 07:53:32;;;;;;;0.00;0.00;;;;;;;11.44;65.78;100385.06;5022872;28;20189;-80
2023/05/01 07:56:05;;;;;;;1.13;0.67;;;;;;;11.57;64.25;100364.97;5029927;28;20312;-81
2023/05/01 07:58:31;;;;;;;0.17;0.17;;;;;;;11.66;62.73;100361.44;5024575;28;20548;-81
2023/05/01 08:00:56;;;;;;;0.43;0.43;;;;;;;11.78;61.43;100348.72;5014320;28;20284;-77
2023/05/01 08:03:21;;;;;;;2.57;1.17;;;;;;;11.95;63.04;100363.56;5014430;28;20268;-81
2023/05/01 08:05:46;;;;;;;0.00;0.00;;;;;;;12.05;61.91;100344.88;5013130;28;20277;-81
2023/05/01 08:08:18;;;;;;;0.20;0.20;;;;;;;12.17;60.56;100346.97;5012619;28;20271;-77
2023/05/01 08:10:43;;;;;;;1.47;1.47;;;;;;;12.11;59.06;100327.16;5013382;28;20276;-77
2023/05/01 08:13:08;;;;;;;1.20;0.73;;;;;;;12.23;60.52;100342.94;5014276;28;20184;-77
2023/05/01 08:15:36;;;;;;;0.00;0.00;;;;;;;12.30;58.97;100326.81;5014294;28;20203;-77
2023/05/01 08:18:01;;;;;;;0.57;0.57;;;;;;;12.39;59.13;100324.84;5013758;28;20205;-77
2023/05/01 08:20:27;;;;;;;0.23;0.17;;;;;;;12.51;58.54;100322.22;5014056;28;20208;-77
2023/05/01 08:22:52;;;;;;;0.63;0.63;;;;;;;12.63;58.61;100326.22;5008812;28;20701;-77
2023/05/01 08:25:17;;;;;;;0.37;0.37;;;;;;;12.78;58.82;100326.50;4992293;28;20181;-77
2023/05/01 08:27:43;;;;;;;0.00;0.00;;;;;;;12.86;57.96;100315.81;4991635;28;20189;-77
2023/05/01 08:30:08;;;;;;;0.00;0.00;;;;;;;12.93;57.20;100321.59;5009287;28;20587;-77
2023/05/01 08:32:34;;;;;;;0.20;0.20;;;;;;;13.08;58.03;100316.34;5012807;28;20721;-77
2023/05/01 08:34:59;;;;;;;0.50;0.50;;;;;;;13.26;57.72;100324.50;5012495;28;20681;-77
2023/05/01 08:37:24;;;;;;;1.43;0.53;;;;;;;13.38;56.28;100317.16;5011655;28;20187;-77
2023/05/01 08:39:50;;;;;;;0.20;0.20;;;;;;;13.54;57.38;100314.63;5012911;28;20177;-77
2023/05/01 08:42:16;;;;;;;0.30;0.30;;;;;;;13.78;57.81;100324.94;5012750;28;20776;-77
2023/05/01 08:44:42;;;;;;;0.10;0.10;;;;;;;13.93;56.90;100312.53;5012414;28;20204;-77
2023/05/01 08:47:15;;;;;;;0.10;0.10;;;;;;;14.09;56.22;100308.03;4998114;28;20239;-77
2023/05/01 08:49:41;;;;;;;0.67;0.63;;;;;;;14.17;54.89;100304.38;4997943;28;20207;-80
2023/05/01 08:52:07;;;;;;;0.30;0.30;;;;;;;14.26;54.43;100307.03;5014407;28;20207;-77
2023/05/01 08:54:35;;;;;;;2.17;1.30;;;;;;;14.32;54.52;100293.88;5013049;28;20180;-77
2023/05/01 08:57:05;;;;;;;0.63;0.53;;;;;;;14.33;54.38;100298.25;5012539;28;20193;-77
2023/05/01 08:59:33;;;;;;;3.10;1.43;;;;;;;14.44;55.46;100304.94;5006973;28;20184;-77
2023/05/01 09:02:04;;;;;;;0.20;0.20;;;;;;;14.44;54.54;100294.72;5007732;28;20287;-77
2023/05/01 09:04:32;;;;;;;0.53;0.53;;;;;;;14.60;54.57;100300.38;5011358;28;20208;-77
2023/05/01 09:06:59;;;;;;;0.93;0.77;;;;;;;14.70;54.40;100293.63;5012514;28;20260;-78
2023/05/01 09:09:25;;;;;;;1.60;1.60;;;;;;;14.79;53.75;100289.63;5012140;28;20207;-78
2023/05/01 09:11:55;;;;;;;0.43;0.43;;;;;;;14.89;53.35;100291.91;5012185;28;20235;-78
2023/05/01 09:14:20;;;;;;;0.30;0.30;;;;;;;15.02;53.34;100291.91;5011738;28;20176;-78
2023/05/01 09:16:46;;;;;;;0.00;0.00;;;;;;;14.90;51.54;100276.22;5012850;28;20239;-77
2023/05/01 09:19:11;;;;;;;0.67;0.67;;;;;;;14.87;51.47;100272.19;5012522;28;20215;-77
2023/05/01 09:21:36;;;;;;;1.20;1.10;;;;;;;14.98;52.64;100283.56;5013444;28;20251;-78
2023/05/01 09:24:02;;;;;;;1.33;1.33;;;;;;;14.99;52.25;100270.59;5002249;28;20196;-78
2023/05/01 09:26:27;;;;;;;1.23;1.13;;;;;;;14.90;52.25;100273.47;5004275;28;20176;-78
2023/05/01 09:28:56;;;;;;;0.20;0.20;;;;;;;14.87;51.23;100258.44;5012134;28;20687;-78
2023/05/01 09:31:27;;;;;;;0.20;0.20;;;;;;;14.96;51.81;100268.53;5010742;28;20572;-78
2023/05/01 09:34:03;;;;;;;0.30;0.30;;;;;;;15.04;52.18;100259.34;5013571;28;20674;-81
2023/05/01 09:36:31;;;;;;;1.23;1.23;;;;;;;15.07;51.76;100264.97;5013642;28;20590;-81
2023/05/01 09:38:59;;;;;;;0.00;0.00;;;;;;;15.13;50.62;100246.28;5013042;28;20183;-79
2023/05/01 09:41:25;;;;;;;0.00;0.00;;;;;;;15.35;52.54;100273.31;5011081;28;20192;-80
2023/05/01 09:43:54;;;;;;;1.17;1.07;;;;;;;15.48;51.53;100252.06;5013040;28;20733;-79
2023/05/01 09:46:22;;;;;;;0.10;0.10;;;;;;;15.44;50.12;100240.13;5012697;28;20199;-77
2023/05/01 09:48:58;;;;;;;0.67;0.67;;;;;;;15.57;52.11;100252.69;5011667;28;20197;-77
2023/05/01 09:51:29;;;;;;;1.70;1.60;;;;;;;15.55;52.17;100256.94;5011478;28;20686;-77
2023/05/01 09:53:59;;;;;;;0.00;0.00;;;;;;;15.41;50.60;100240.81;5011154;28;20195;-77
2023/05/01 09:56:26;;;;;;;0.33;0.33;;;;;;;15.54;50.51;100241.59;5026489;28;20196;-77
2023/05/01 09:58:53;;;;;;;0.40;0.40;;;;;;;15.76;52.90;100252.88;5012169;28;20196;-84
2023/05/01 10:01:36;;;;;;;0.00;0.00;;;;;;;15.97;51.50;100241.66;5001795;28;20277;-82
2023/05/01 10:04:02;;;;;;;0.10;0.10;;;;;;;16.14;51.06;100236.97;4999361;28;20279;-80
2023/05/01 10:06:28;;;;;;;0.00;0.00;;;;;;;16.22;49.58;100225.78;5000398;28;20223;-81
2023/05/01 10:08:53;;;;;;;0.90;0.90;;;;;;;16.19;48.79;100223.72;4997984;28;20208;-79
2023/05/01 10:11:19;;;;;;;1.00;1.00;;;;;;;16.18;49.80;100230.38;5012355;28;20536;-80
2023/05/01 10:13:44;;;;;;;4.90;0.40;;;;;;;16.33;49.80;100226.03;5012611;28;20176;-81
2023/05/01 10:16:29;;;;;;;0.40;0.40;;;;;;;16.58;50.19;100226.66;5010274;28;20187;-77
2023/05/01 10:18:57;;;;;;;2.20;2.00;;;;;;;16.63;49.13;100212.59;5012679;28;20180;-78
2023/05/01 10:21:22;;;;;;;0.53;0.33;;;;;;;16.80;48.87;100226.06;5012880;28;20208;-77
2023/05/01 10:23:47;;;;;;;0.83;0.83;;;;;;;16.77;48.10;100206.63;5012454;28;20195;-78
2023/05/01 10:26:15;;;;;;;0.33;0.33;;;;;;;16.74;49.06;100210.13;5002043;28;20216;-77
2023/05/01 10:28:42;;;;;;;0.10;0.10;;;;;;;16.92;49.47;100216.84;5009315;28;20204;-76
2023/05/01 10:31:10;;;;;;;0.87;0.87;;;;;;;16.59;48.39;100203.44;5011015;28;20200;-76
2023/05/01 10:33:35;;;;;;;0.00;0.00;;;;;;;16.70;49.06;100221.09;5009734;28;20677;-77
2023/05/01 10:36:02;;;;;;;2.03;1.53;;;;;;;17.02;50.10;100224.56;5010422;28;20263;-77
2023/05/01 10:38:34;;;;;;;1.20;1.20;;;;;;;17.04;47.84;100194.66;5010904;28;20215;-77
2023/05/01 10:40:59;;;;;;;0.70;0.70;;;;;;;16.96;48.81;100203.94;5009834;28;20291;-77
2023/05/01 10:43:30;;;;;;;0.33;0.30;;;;;;;17.01;49.39;100206.41;5010851;28;20255;-77
2023/05/01 10:46:07;;;;;;;0.30;0.30;;;;;;;17.08;49.25;100208.56;5010447;28;20724;-76
2023/05/01 10:48:38;;;;;;;0.40;0.40;;;;;;;17.21;48.75;100194.25;5010799;28;20230;-77
2023/05/01 10:51:10;;;;;;;1.20;1.03;;;;;;;17.30;48.26;100190.47;5009240;28;20204;-77
2023/05/01 10:53:36;;;;;;;0.87;0.77;;;;;;;17.45;49.96;100208.94;5002634;28;20192;-77
2023/05/01 10:56:04;;;;;;;0.97;0.97;;;;;;;17.46;48.03;100183.69;5010410;28;20188;-76
2023/05/01 10:58:35;;;;;;;0.00;0.00;;;;;;;17.52;47.83;100182.25;5010728;28;20183;-77
2023/05/01 11:01:30;;;;;;;0.90;0.73;;;;;;;17.53;47.38;100183.84;5009149;28;20291;-76
2023/05/01 11:03:58;;;;;;;0.00;0.00;;;;;;;17.43;47.06;100180.88;5010315;28;20203;-77
2023/05/01 11:06:24;;;;;;;0.57;0.57;;;;;;;17.61;47.17;100175.69;5009500;28;20231;-77
2023/05/01 11:08:49;;;;;;;0.00;0.00;;;;;;;17.86;47.91;100176.19;5010513;28;20219;-77
2023/05/01 11:11:20;;;;;;;1.30;1.07;;;;;;;18.00;47.07;100168.16;5010075;28;20200;-77
2023/05/01 11:14:02;;;;;;;1.03;0.97;;;;;;;17.78;47.27;100167.75;5010765;28;20181;-77
2023/05/01 11:16:36;;;;;;;0.43;0.40;;;;;;;17.74;46.10;100155.84;5025896;28;20243;-77
2023/05/01 11:19:06;;;;;;;1.47;1.23;;;;;;;17.84;47.60;100168.28;5010656;28;20642;-77
2023/05/01 11:21:33;;;;;;;0.87;0.87;;;;;;;17.87;48.62;100180.56;5018749;28;20193;-77
2023/05/01 11:24:08;;;;;;;1.57;1.47;;;;;;;18.00;50.16;100182.78;5026565;28;20192;-76
2023/05/01 11:26:38;;;;;;;0.10;0.10;;;;;;;17.91;48.11;100165.63;5033227;28;20184;-76
2023/05/01 11:29:05;;;;;;;1.90;1.57;;;;;;;18.09;48.63;100177.03;5014230;28;20204;-77
2023/05/01 11:31:31;;;;;;;0.10;0.10;;;;;;;18.16;47.68;100171.59;5029508;28;20240;-76